Time;durP1;ratioP1;P1;durP2;ratioP2;P2;SDS_P1;SDS_P2;PMS_P1;PMS_P2;Temp;Humidity;BMP_temperature;BMP_pressure;BME280_temperature;BME280_humidity;BME280_pressure;Samples;Min_cycle;Max_cycle;Signal;HPM_P1;HPM_P2
2023/01/15 00:00:34;;;;;;;3.50;1.08;;;;;;;18.95;44.19;99828.47;4991418;28;20034;-69
2023/01/15 00:03:00;;;;;;;4.13;1.00;;;;;;;18.96;44.78;99818.75;4989069;28;20113;-71
2023/01/15 00:05:25;;;;;;;3.17;1.00;;;;;;;18.94;44.06;99810.16;4992421;28;20266;-72
2023/01/15 00:07:51;;;;;;;3.33;1.17;;;;;;;18.94;44.16;99818.91;4988350;28;20334;-71
2023/01/15 00:10:16;;;;;;;3.35;1.10;;;;;;;18.89;44.20;99810.63;4991893;28;20041;-73
2023/01/15 00:12:41;;;;;;;3.30;1.00;;;;;;;18.91;44.35;99816.56;5000300;28;21042;-72
2023/01/15 00:15:07;;;;;;;3.10;1.07;;;;;;;18.89;44.09;99813.25;5004558;28;20037;-70
2023/01/15 00:17:32;;;;;;;2.90;0.80;;;;;;;18.88;44.11;99810.78;4999352;28;20268;-72
2023/01/15 00:19:57;;;;;;;4.53;1.00;;;;;;;18.86;44.11;99800.38;4995244;28;20046;-70
2023/01/15 00:22:23;;;;;;;3.20;1.00;;;;;;;18.83;44.15;99813.84;4983295;28;20486;-71
2023/01/15 00:27:38;;;;;;;4.20;0.98;;;;;;;18.86;44.04;99800.38;4989125;28;20037;-69
2023/01/15 00:30:04;;;;;;;4.65;1.00;;;;;;;18.82;43.92;99805.09;4984553;28;20066;-73
2023/01/15 00:32:30;;;;;;;3.72;0.80;;;;;;;18.83;43.95;99809.41;5000151;28;20041;-72
2023/01/15 00:34:57;;;;;;;4.70;1.15;;;;;;;18.81;43.86;99807.91;4987478;28;20467;-72
2023/01/15 00:37:23;;;;;;;3.72;1.00;;;;;;;18.79;43.81;99805.41;4990156;28;20042;-71
2023/01/15 00:39:48;;;;;;;4.45;1.00;;;;;;;18.80;43.67;99809.72;5003892;28;20104;-72
2023/01/15 00:42:14;;;;;;;4.43;1.00;;;;;;;18.79;43.68;99810.69;5000881;28;20104;-72
2023/01/15 00:44:40;;;;;;;2.55;1.00;;;;;;;18.75;43.49;99821.69;4986715;28;20451;-71
2023/01/15 00:47:07;;;;;;;4.75;0.88;;;;;;;18.66;43.37;99805.81;4999626;28;20073;-71
2023/01/15 00:49:33;;;;;;;4.97;0.95;;;;;;;18.74;43.48;99820.88;4983991;28;20034;-73
2023/01/15 00:51:58;;;;;;;3.92;1.10;;;;;;;18.76;43.55;99826.81;4993121;28;20096;-72
2023/01/15 00:54:23;;;;;;;3.28;1.10;;;;;;;18.70;43.23;99823.97;4992762;28;20245;-73
2023/01/15 00:56:48;;;;;;;3.83;1.23;;;;;;;18.74;43.31;99834.09;4988016;28;20037;-72
2023/01/15 00:59:14;;;;;;;2.70;0.90;;;;;;;18.73;43.32;99831.59;4996984;28;20821;-70
2023/01/15 01:01:39;;;;;;;4.20;0.90;;;;;;;18.69;43.42;99823.13;5001205;28;20033;-70
2023/01/15 01:04:05;;;;;;;4.57;1.17;;;;;;;18.64;43.25;99820.97;4997113;28;20077;-72
2023/01/15 01:06:31;;;;;;;3.95;1.00;;;;;;;18.66;43.41;99834.03;4985142;28;20038;-71
2023/01/15 01:08:56;;;;;;;4.78;1.00;;;;;;;18.64;43.20;99822.75;4997652;28;20429;-71
2023/01/15 01:11:25;;;;;;;3.97;1.10;;;;;;;18.65;43.15;99835.81;5002341;28;20034;-72
2023/01/15 01:13:52;;;;;;;3.80;1.15;;;;;;;18.68;43.32;99832.06;4991371;28;20415;-70
2023/01/15 01:16:24;;;;;;;3.10;0.90;;;;;;;18.61;43.22;99826.56;4995665;28;20124;-71
2023/01/15 01:18:50;;;;;;;4.97;1.00;;;;;;;18.65;43.01;99837.63;4986659;28;20038;-71
2023/01/15 01:21:16;;;;;;;4.13;0.93;;;;;;;18.60;42.98;99821.44;4994514;28;20034;-73
2023/01/15 01:23:42;;;;;;;3.78;0.90;;;;;;;18.63;42.94;99834.31;4996366;28;20030;-72
2023/01/15 01:26:08;;;;;;;4.93;1.13;;;;;;;18.51;42.93;99817.88;4995904;28;20037;-73
2023/01/15 01:28:34;;;;;;;3.92;0.90;;;;;;;18.58;42.86;99828.66;5000118;28;20037;-71
2023/01/15 01:30:59;;;;;;;4.07;1.00;;;;;;;18.55;43.07;99816.59;4999200;28;20033;-72
2023/01/15 01:33:24;;;;;;;4.40;1.00;;;;;;;18.58;42.72;99829.50;4994522;28;20368;-73
2023/01/15 01:35:50;;;;;;;3.90;1.10;;;;;;;18.61;42.71;99838.91;5001676;28;20271;-72
2023/01/15 01:38:15;;;;;;;2.30;1.00;;;;;;;18.59;42.56;99833.78;4996123;28;20052;-70
2023/01/15 01:40:41;;;;;;;3.85;0.98;;;;;;;18.55;42.44;99828.94;4985066;28;20045;-72
2023/01/15 01:43:19;;;;;;;4.55;0.95;;;;;;;18.53;42.67;99831.75;4991822;28;20026;-72
2023/01/15 01:45:45;;;;;;;4.25;1.00;;;;;;;18.55;42.54;99837.72;4989003;28;20042;-71
2023/01/15 01:48:11;;;;;;;3.55;1.00;;;;;;;18.53;42.46;99834.38;4986720;28;20034;-72
2023/01/15 01:50:39;;;;;;;4.35;0.95;;;;;;;18.49;42.25;99833.03;4989260;28;20041;-71
2023/01/15 01:53:13;;;;;;;3.97;0.98;;;;;;;18.53;42.46;99825.66;4990769;28;20125;-73
2023/01/15 01:55:39;;;;;;;4.50;1.15;;;;;;;18.51;42.56;99828.44;4990934;28;20117;-72
2023/01/15 01:58:08;;;;;;;3.80;1.10;;;;;;;18.47;42.51;99825.28;4994630;28;20038;-71
2023/01/15 02:00:36;;;;;;;3.88;1.10;;;;;;;18.54;42.44;99843.97;4994098;28;20079;-71
2023/01/15 02:03:06;;;;;;;3.80;1.00;;;;;;;18.49;42.76;99830.41;4991335;28;20042;-73
2023/01/15 02:05:36;;;;;;;3.70;1.10;;;;;;;18.40;42.85;99815.47;4990402;28;20391;-73
2023/01/15 02:08:02;;;;;;;4.60;1.25;;;;;;;18.48;42.71;99823.47;4991975;28;20599;-71
2023/01/15 02:10:28;;;;;;;4.80;1.13;;;;;;;18.52;42.88;99842.44;4993401;28;20042;-72
2023/01/15 02:13:03;;;;;;;3.40;1.10;;;;;;;18.46;42.73;99842.06;4992726;28;20897;-71
2023/01/15 02:15:37;;;;;;;3.75;0.82;;;;;;;18.46;42.75;99841.25;4988548;28;20740;-71
2023/01/15 02:18:14;;;;;;;4.82;1.02;;;;;;;18.51;42.49;99843.44;4983542;28;20038;-72
2023/01/15 02:21:01;;;;;;;3.78;0.90;;;;;;;18.49;42.33;99848.88;4994338;28;20031;-73
2023/01/15 02:23:30;;;;;;;3.53;0.85;;;;;;;18.48;42.46;99837.50;4997353;28;20029;-71
2023/01/15 02:26:26;;;;;;;4.70;0.95;;;;;;;18.49;42.42;99839.13;5000478;28;20034;-72
2023/01/15 02:28:53;;;;;;;4.25;1.00;;;;;;;18.44;42.09;99827.41;4999361;28;20036;-71
2023/01/15 02:31:28;;;;;;;4.72;1.33;;;;;;;18.44;42.35;99836.13;4998512;28;20042;-71
2023/01/15 02:34:00;;;;;;;3.85;0.90;;;;;;;18.44;42.35;99825.56;4992975;28;20068;-71
2023/01/15 02:36:29;;;;;;;4.05;1.00;;;;;;;18.41;42.02;99812.69;4986102;28;20046;-71
2023/01/15 02:38:58;;;;;;;3.88;0.90;;;;;;;18.44;42.07;99812.38;4992037;28;20506;-71
2023/01/15 02:41:30;;;;;;;4.78;1.30;;;;;;;18.40;42.06;99821.56;4987095;28;20378;-70
2023/01/15 02:43:56;;;;;;;3.45;1.08;;;;;;;18.42;42.08;99830.19;4988047;28;20026;-71
2023/01/15 02:46:27;;;;;;;3.83;1.10;;;;;;;18.42;41.99;99826.69;4990959;28;20482;-72
2023/01/15 02:48:56;;;;;;;3.95;0.90;;;;;;;18.41;41.84;99812.69;4995986;28;20046;-71
2023/01/15 02:51:27;;;;;;;4.43;1.10;;;;;;;18.40;41.83;99808.38;4986871;28;20471;-70
2023/01/15 02:53:57;;;;;;;4.82;1.25;;;;;;;18.40;41.64;99811.03;4989427;28;20459;-71
2023/01/15 02:56:26;;;;;;;4.75;1.20;;;;;;;18.36;41.79;99801.78;4990101;28;20049;-71
2023/01/15 02:58:56;;;;;;;4.78;1.02;;;;;;;18.34;41.64;99798.47;4991470;28;20032;-72
2023/01/15 03:01:28;;;;;;;3.88;0.90;;;;;;;18.36;41.53;99799.13;4992416;28;20034;-72
2023/01/15 03:04:16;;;;;;;5.65;1.15;;;;;;;18.37;41.30;99802.59;4990634;28;20096;-71
2023/01/15 03:06:50;;;;;;;3.97;1.00;;;;;;;18.36;41.34;99809.69;4986321;28;20038;-70
2023/01/15 03:09:16;;;;;;;4.25;1.00;;;;;;;18.29;41.44;99805.97;4984117;28;20305;-71
2023/01/15 03:12:21;;;;;;;4.45;1.15;;;;;;;18.36;41.51;99820.22;4989852;28;20056;-71
2023/01/15 03:14:52;;;;;;;4.75;1.10;;;;;;;18.36;41.41;99824.66;4978081;28;20183;-72
2023/01/15 03:17:27;;;;;;;4.00;0.95;;;;;;;18.33;41.80;99817.06;4991713;28;20030;-73
2023/01/15 03:20:00;;;;;;;4.07;1.08;;;;;;;18.29;41.76;99819.16;5007298;28;20168;-73
2023/01/15 03:22:31;;;;;;;5.93;1.30;;;;;;;18.29;41.68;99811.25;4987083;28;20364;-71
2023/01/15 03:25:01;;;;;;;4.47;0.90;;;;;;;18.30;41.75;99816.38;4991063;28;20029;-73
2023/01/15 03:27:27;;;;;;;3.55;1.00;;;;;;;18.30;41.51;99800.56;4991579;28;20041;-71
2023/01/15 03:29:59;;;;;;;4.28;0.95;;;;;;;18.29;41.81;99803.34;4993987;28;20046;-71
2023/01/15 03:32:25;;;;;;;3.92;1.08;;;;;;;18.27;41.61;99806.13;5000012;28;20052;-70
2023/01/15 03:34:53;;;;;;;4.32;1.00;;;;;;;18.27;41.36;99803.47;4988604;28;20023;-73
2023/01/15 03:37:20;;;;;;;3.85;0.90;;;;;;;18.18;41.29;99787.75;5005442;28;20033;-71
2023/01/15 03:39:46;;;;;;;4.70;1.10;;;;;;;18.28;41.30;99805.16;5004573;28;20418;-71
2023/01/15 03:42:28;;;;;;;2.85;1.05;;;;;;;18.27;41.24;99805.31;4999324;28;20204;-73
2023/01/15 03:45:11;;;;;;;4.00;0.93;;;;;;;18.23;41.04;99801.28;4997291;28;20068;-73
2023/01/15 03:47:45;;;;;;;5.28;1.10;;;;;;;18.25;41.15;99817.81;4985588;28;20113;-71
2023/01/15 03:50:29;;;;;;;5.05;1.05;;;;;;;18.27;40.95;99815.84;4985258;28;20049;-72
2023/01/15 03:53:20;;;;;;;4.78;1.02;;;;;;;18.26;40.94;99812.41;5003495;28;20541;-72
2023/01/15 03:55:55;;;;;;;3.75;0.90;;;;;;;18.24;40.94;99809.06;5004917;28;20046;-70
2023/01/15 03:58:20;;;;;;;;;;;;;;;18.29;40.66;99813.88;5004797;28;20341;-70
2023/01/15 04:00:52;;;;;;;3.50;1.00;;;;;;;18.24;41.01;99813.50;5004846;28;20297;-71
2023/01/15 04:03:19;;;;;;;3.38;1.10;;;;;;;18.24;41.15;99818.78;5004070;28;20117;-71
2023/01/15 04:05:46;;;;;;;4.50;1.10;;;;;;;18.19;41.13;99806.06;4993725;28;20141;-72
2023/01/15 04:08:13;;;;;;;5.13;1.48;;;;;;;18.21;41.24;99796.16;4988293;28;20034;-71
2023/01/15 04:10:53;;;;;;;4.63;1.08;;;;;;;18.21;41.08;99801.44;5004492;28;20030;-73
2023/01/15 04:13:18;;;;;;;4.88;1.10;;;;;;;18.17;41.07;99797.47;5002717;28;20591;-72
2023/01/15 04:15:43;;;;;;;3.20;1.17;;;;;;;18.16;41.07;99806.34;5004532;28;20029;-70
2023/01/15 04:18:09;;;;;;;4.03;0.98;;;;;;;18.20;41.00;99815.63;4984578;28;20031;-73
2023/01/15 04:20:34;;;;;;;3.45;1.13;;;;;;;18.21;40.89;99808.53;4999682;28;20373;-71
2023/01/15 04:22:59;;;;;;;3.78;0.90;;;;;;;18.20;40.83;99815.63;4995986;28;20042;-72
2023/01/15 04:25:24;;;;;;;3.70;1.02;;;;;;;18.19;40.91;99807.88;4985011;28;20056;-73
2023/01/15 04:27:53;;;;;;;3.75;1.15;;;;;;;18.19;40.68;99811.31;5002825;28;20034;-72
2023/01/15 04:30:18;;;;;;;4.50;0.95;;;;;;;18.17;40.68;99794.00;4992330;28;20041;-72
2023/01/15 04:32:46;;;;;;;4.07;0.80;;;;;;;18.16;40.60;99803.72;4987755;28;20857;-72
2023/01/15 04:35:12;;;;;;;4.97;1.05;;;;;;;18.13;40.62;99801.38;4992032;28;20121;-71
2023/01/15 04:37:37;;;;;;;3.42;1.10;;;;;;;18.13;40.61;99802.22;4996920;28;20370;-73
2023/01/15 04:40:03;;;;;;;6.13;1.40;;;;;;;18.13;40.61;99812.78;4994961;28;20034;-71
2023/01/15 04:45:12;;;;;;;4.53;1.23;;;;;;;18.15;40.35;99817.91;4994728;28;20092;-73
2023/01/15 04:47:37;;;;;;;4.75;0.85;;;;;;;18.13;40.47;99822.47;4990694;28;20034;-70
2023/01/15 04:50:03;;;;;;;5.07;1.15;;;;;;;18.12;40.40;99829.56;4996248;28;20037;-73
2023/01/15 04:52:28;;;;;;;4.60;1.05;;;;;;;18.10;40.47;99828.88;4995466;28;20145;-73
2023/01/15 04:54:54;;;;;;;4.57;1.00;;;;;;;18.12;40.38;99832.19;4991629;28;20129;-69
2023/01/15 04:57:19;;;;;;;3.58;1.08;;;;;;;18.09;40.49;99837.75;4988873;28;20264;-70
2023/01/15 04:59:44;;;;;;;3.53;0.98;;;;;;;18.10;40.67;99826.25;4997327;28;20030;-69
2023/01/15 05:02:10;;;;;;;3.33;1.00;;;;;;;18.11;40.37;99829.72;4989963;28;20027;-72
2023/01/15 05:04:35;;;;;;;5.22;1.15;;;;;;;18.07;40.29;99816.00;4997289;28;20030;-72
2023/01/15 05:07:04;;;;;;;3.50;1.02;;;;;;;18.06;40.31;99819.59;4984127;28;20030;-72
2023/01/15 05:09:30;;;;;;;6.40;1.00;;;;;;;18.06;40.28;99824.88;4988913;28;20045;-71
2023/01/15 05:11:56;;;;;;;3.95;1.25;;;;;;;18.09;40.49;99824.59;4994934;28;20505;-74
2023/01/15 05:14:21;;;;;;;3.50;0.90;;;;;;;18.08;40.37;99825.56;4992231;28;20037;-71
2023/01/15 05:16:46;;;;;;;3.53;0.90;;;;;;;18.07;40.35;99823.91;4990765;28;20060;-71
2023/01/15 05:19:12;;;;;;;3.58;0.90;;;;;;;18.04;40.20;99811.03;5001831;28;20045;-72
2023/01/15 05:21:41;;;;;;;4.95;1.00;;;;;;;18.02;40.12;99806.88;4986864;28;20026;-70
2023/01/15 05:24:11;;;;;;;4.38;1.17;;;;;;;18.07;40.29;99815.16;4990488;28;20057;-73
2023/01/15 05:26:37;;;;;;;3.65;1.33;;;;;;;18.05;40.43;99811.84;4983678;28;20463;-72
2023/01/15 05:29:03;;;;;;;5.55;1.30;;;;;;;18.04;40.45;99813.66;5003202;28;20124;-73
2023/01/15 05:31:29;;;;;;;6.43;1.17;;;;;;;18.02;40.45;99815.59;4989810;28;20042;-72
2023/01/15 05:33:56;;;;;;;4.05;1.10;;;;;;;18.03;40.34;99809.34;4995919;28;20033;-73
2023/01/15 05:36:28;;;;;;;4.57;1.30;;;;;;;18.03;40.25;99812.00;4992434;28;20122;-74
2023/01/15 05:38:54;;;;;;;2.83;0.90;;;;;;;18.02;40.26;99806.88;4983644;28;20174;-72
2023/01/15 05:44:08;;;;;;;5.85;1.15;;;;;;;18.00;40.42;99806.19;4998803;28;20048;-71
2023/01/15 05:46:34;;;;;;;6.00;1.30;;;;;;;17.97;40.03;99794.13;4987980;28;20085;-72
2023/01/15 05:49:06;;;;;;;4.80;1.17;;;;;;;17.97;40.44;99798.59;4997448;28;20117;-70
2023/01/15 05:51:33;;;;;;;5.07;1.10;;;;;;;18.00;40.31;99798.28;4982533;28;20064;-70
2023/01/15 05:53:59;;;;;;;3.60;0.75;;;;;;;17.99;40.68;99797.47;4983595;28;20710;-72
2023/01/15 05:56:24;;;;;;;3.35;0.93;;;;;;;18.03;41.25;99796.16;4988107;28;20030;-72
2023/01/15 05:58:50;;;;;;;4.72;1.08;;;;;;;18.04;41.38;99794.34;4988172;28;20033;-72
2023/01/15 06:01:15;;;;;;;3.67;0.93;;;;;;;18.03;41.21;99803.25;4991172;28;20037;-70
2023/01/15 06:03:41;;;;;;;3.40;0.88;;;;;;;18.06;41.26;99787.16;4985913;28;20108;-72
2023/01/15 06:06:11;;;;;;;4.03;1.00;;;;;;;18.09;41.16;99789.50;5001151;28;20069;-73
2023/01/15 06:08:36;;;;;;;3.90;1.25;;;;;;;18.11;41.17;99796.25;4991626;28;20045;-71
2023/01/15 06:11:01;;;;;;;4.18;1.05;;;;;;;18.19;41.11;99799.97;4983851;28;20034;-73
2023/01/15 06:13:27;;;;;;;3.88;0.98;;;;;;;18.22;41.11;99807.56;4989620;28;20213;-72
2023/01/15 06:15:52;;;;;;;4.00;1.10;;;;;;;18.23;40.81;99806.56;4989110;28;20087;-71
2023/01/15 06:18:17;;;;;;;6.55;1.15;;;;;;;18.27;40.98;99818.50;4998611;28;20628;-72
2023/01/15 06:20:43;;;;;;;3.78;1.45;;;;;;;18.29;40.89;99824.44;4984683;28;20034;-69
2023/01/15 06:23:08;;;;;;;4.38;1.08;;;;;;;18.28;40.86;99820.97;4996993;28;20577;-70
2023/01/15 06:25:35;;;;;;;5.80;0.90;;;;;;;18.33;40.91;99817.91;4998933;28;20045;-71
2023/01/15 06:28:02;;;;;;;4.68;1.25;;;;;;;18.36;40.74;99825.50;4982062;28;20380;-70
2023/01/15 06:30:28;;;;;;;4.63;0.80;;;;;;;18.40;40.72;99818.13;4994359;28;20038;-71
2023/01/15 06:32:53;;;;;;;2.60;0.77;;;;;;;18.41;40.66;99825.06;4988682;28;20045;-73
2023/01/15 06:35:18;;;;;;;3.08;0.98;;;;;;;18.46;40.43;99828.06;5000236;28;20069;-69
2023/01/15 06:37:43;;;;;;;5.03;1.20;;;;;;;18.45;40.80;99831.66;4981375;28;20061;-71
2023/01/15 06:40:09;;;;;;;4.78;0.93;;;;;;;18.49;40.62;99838.31;4994583;28;20041;-73
2023/01/15 06:48:02;;;;;;;3.80;0.95;;;;;;;18.50;40.46;99821.53;4991234;28;20108;-70
2023/01/15 06:50:28;;;;;;;4.75;1.20;;;;;;;18.54;40.50;99824.69;4986571;28;20042;-74
2023/01/15 06:52:53;;;;;;;3.65;0.82;;;;;;;18.53;40.45;99829.09;4983710;28;20030;-69
2023/01/15 06:55:18;;;;;;;4.82;1.10;;;;;;;18.53;40.29;99818.53;4994912;28;20037;-71
2023/01/15 06:57:44;;;;;;;4.57;1.13;;;;;;;18.56;40.25;99828.81;5000948;28;20034;-72
2023/01/15 07:00:10;;;;;;;3.60;0.88;;;;;;;18.58;40.08;99840.06;4993082;28;20030;-72
2023/01/15 07:02:36;;;;;;;4.13;1.00;;;;;;;18.60;40.17;99829.34;4987909;28;20104;-71
2023/01/15 07:05:01;;;;;;;5.15;0.98;;;;;;;18.61;40.17;99831.84;4984290;28;20458;-72
2023/01/15 07:07:28;;;;;;;4.82;1.10;;;;;;;18.60;40.04;99835.44;4999668;28;20030;-71
2023/01/15 07:09:53;;;;;;;4.40;1.10;;;;;;;18.63;40.12;99836.97;5001236;28;20044;-71
2023/01/15 07:12:20;;;;;;;3.05;1.00;;;;;;;18.63;40.13;99834.31;5001339;28;20029;-70
2023/01/15 07:14:46;;;;;;;2.42;0.55;;;;;;;18.64;39.98;99839.44;4982468;28;20145;-71
2023/01/15 07:17:12;;;;;;;4.45;1.00;;;;;;;18.63;39.99;99848.34;4982427;28;20034;-72
2023/01/15 07:19:37;;;;;;;4.15;0.90;;;;;;;18.61;40.06;99839.75;4994205;28;20117;-69
2023/01/15 07:22:04;;;;;;;2.97;0.82;;;;;;;18.62;39.98;99845.84;4988263;28;20225;-70
2023/01/15 07:24:29;;;;;;;4.05;1.20;;;;;;;18.61;39.95;99855.59;4989054;28;20041;-70
2023/01/15 07:26:55;;;;;;;4.57;1.08;;;;;;;18.60;39.95;99847.81;4996626;28;20034;-70
2023/01/15 07:29:20;;;;;;;3.35;1.00;;;;;;;18.64;40.05;99867.63;4995346;28;20441;-71
2023/01/15 07:31:45;;;;;;;4.43;1.10;;;;;;;18.61;39.96;99860.00;4988734;28;20069;-72
2023/01/15 07:34:11;;;;;;;3.90;0.93;;;;;;;18.62;40.26;99865.13;4986389;28;20430;-72
2023/01/15 07:36:36;;;;;;;4.88;1.20;;;;;;;18.60;40.47;99864.47;4991992;28;20827;-72
2023/01/15 07:39:04;;;;;;;4.53;1.20;;;;;;;18.60;40.58;99861.00;4994944;28;20078;-71
2023/01/15 07:49:45;;;;;;;2.67;0.93;;;;;;;18.51;41.07;99861.91;4985002;28;20044;-69
2023/01/15 07:52:21;;;;;;;4.35;1.00;;;;;;;18.61;41.17;99884.63;4992701;28;20060;-71
2023/01/15 07:54:47;;;;;;;4.40;0.90;;;;;;;18.60;41.18;99890.03;4988571;28;20093;-72
2023/01/15 07:57:16;;;;;;;3.58;0.90;;;;;;;18.57;41.45;99888.53;4990072;28;20037;-71
2023/01/15 07:59:42;;;;;;;4.95;0.95;;;;;;;18.59;41.37;99891.00;4984764;28;20064;-69
2023/01/15 08:02:07;;;;;;;2.75;0.77;;;;;;;18.60;41.32;99896.13;4986123;28;20145;-72
2023/01/15 08:04:32;;;;;;;4.15;0.88;;;;;;;18.60;41.37;99892.69;4990340;28;20447;-72
2023/01/15 08:06:59;;;;;;;3.03;0.88;;;;;;;18.60;41.60;99890.84;4991230;28;20913;-70
2023/01/15 08:09:25;;;;;;;3.60;0.95;;;;;;;18.60;41.45;99897.97;5000247;28;20030;-70
2023/01/15 08:17:19;;;;;;;4.15;1.00;;;;;;;18.60;41.43;99898.78;4996575;28;20399;-71
2023/01/15 08:19:45;;;;;;;5.10;1.17;;;;;;;18.57;41.24;99885.88;4988648;28;20045;-70
2023/01/15 08:22:10;;;;;;;5.00;1.02;;;;;;;18.53;41.04;99891.59;4989179;28;20026;-73
2023/01/15 08:24:36;;;;;;;2.95;0.88;;;;;;;18.56;41.29;99902.69;4996017;28;20034;-72
2023/01/15 08:27:02;;;;;;;3.10;0.90;;;;;;;18.54;41.77;99903.84;4998746;28;20069;-71
2023/01/15 08:29:28;;;;;;;3.75;0.90;;;;;;;18.52;41.59;99890.78;4999370;28;20030;-70
2023/01/15 08:31:54;;;;;;;3.70;0.90;;;;;;;18.48;41.68;99892.91;4998079;28;20034;-70
2023/01/15 08:34:19;;;;;;;5.60;1.00;;;;;;;18.56;41.88;99902.69;4999999;28;20026;-70
2023/01/15 08:36:44;;;;;;;4.28;0.90;;;;;;;18.57;42.15;99899.06;4990188;28;20050;-70
2023/01/15 08:39:10;;;;;;;6.70;1.33;;;;;;;18.57;42.23;99904.34;4999428;28;20054;-69
2023/01/15 08:41:35;;;;;;;3.60;0.95;;;;;;;18.56;42.51;99900.03;4987091;28;20049;-70
2023/01/15 08:44:01;;;;;;;4.40;1.25;;;;;;;18.58;42.54;99906.03;4993975;28;20460;-70
2023/01/15 08:46:26;;;;;;;6.30;1.15;;;;;;;18.59;42.49;99885.72;4992842;28;20648;-71
2023/01/15 08:48:52;;;;;;;5.85;1.33;;;;;;;18.65;42.44;99898.31;4988608;28;20034;-70
2023/01/15 08:51:18;;;;;;;4.15;1.00;;;;;;;18.61;42.66;99887.25;5000127;28;20053;-75
2023/01/15 08:53:44;;;;;;;5.22;1.20;;;;;;;18.65;42.85;99890.41;4990736;28;20057;-70
2023/01/15 08:56:15;;;;;;;5.20;1.17;;;;;;;18.69;42.46;99894.38;5000732;28;20061;-69
2023/01/15 08:58:40;;;;;;;5.78;1.10;;;;;;;18.70;42.68;99884.69;4987365;28;20217;-70
2023/01/15 09:01:10;;;;;;;4.93;0.95;;;;;;;18.72;42.46;99880.88;4990440;28;20510;-69
2023/01/15 09:03:37;;;;;;;5.03;1.33;;;;;;;18.75;42.39;99891.16;4987778;28;20031;-69
2023/01/15 09:06:04;;;;;;;3.38;1.02;;;;;;;18.72;42.51;99880.06;4994620;28;20026;-70
2023/01/15 09:08:30;;;;;;;4.68;1.20;;;;;;;18.70;42.65;99867.03;5002363;28;20033;-69
2023/01/15 09:11:00;;;;;;;4.00;1.10;;;;;;;18.73;42.85;99860.63;4994045;28;20046;-69
2023/01/15 09:13:27;;;;;;;4.63;1.10;;;;;;;18.73;42.51;99868.53;4985571;28;20034;-68
2023/01/15 09:15:52;;;;;;;4.25;1.02;;;;;;;18.71;42.61;99866.06;4994630;28;20061;-70
2023/01/15 09:18:19;;;;;;;3.65;1.08;;;;;;;18.76;42.71;99863.78;5002266;28;20662;-70
2023/01/15 09:20:46;;;;;;;5.22;1.35;;;;;;;18.81;42.52;99866.78;5001664;28;20030;-70
2023/01/15 09:23:11;;;;;;;6.35;1.60;;;;;;;18.82;42.29;99876.38;4998479;28;20041;-72
2023/01/15 09:25:36;;;;;;;5.10;1.25;;;;;;;18.83;42.44;99875.41;4996781;28;20093;-71
2023/01/15 09:28:01;;;;;;;5.47;1.00;;;;;;;18.84;42.67;99878.88;5001452;28;20045;-70
2023/01/15 09:30:28;;;;;;;3.97;1.00;;;;;;;18.83;42.69;99885.13;4985592;28;20084;-72
2023/01/15 09:32:53;;;;;;;5.53;1.13;;;;;;;18.86;42.52;99874.28;5002699;28;20161;-71
2023/01/15 09:35:18;;;;;;;7.07;1.77;;;;;;;18.91;42.20;99884.38;4997394;28;20493;-72
2023/01/15 09:37:49;;;;;;;6.78;1.33;;;;;;;18.87;42.26;99875.09;4999177;28;20276;-74
2023/01/15 09:40:39;;;;;;;5.05;0.93;;;;;;;18.94;42.16;99874.34;4985563;28;20732;-72
2023/01/15 09:43:27;;;;;;;4.82;1.45;;;;;;;18.94;42.21;99884.09;4989163;28;20075;-73
2023/01/15 09:46:01;;;;;;;4.72;1.20;;;;;;;18.94;42.50;99871.69;4988933;28;20796;-69
2023/01/15 09:48:35;;;;;;;6.28;1.23;;;;;;;18.97;42.38;99892.53;4994731;28;20121;-69
2023/01/15 09:51:35;;;;;;;4.43;1.08;;;;;;;18.98;42.23;99883.63;4997753;28;20089;-69
2023/01/15 09:54:13;;;;;;;5.32;1.00;;;;;;;18.97;41.96;99889.06;4991468;28;20034;-70
2023/01/15 09:56:38;;;;;;;6.90;1.20;;;;;;;18.96;41.99;99897.94;4999969;28;20037;-71
2023/01/15 09:59:33;;;;;;;4.80;1.08;;;;;;;18.96;41.88;99909.38;4985494;28;20041;-68
2023/01/15 10:02:01;;;;;;;4.25;0.90;;;;;;;18.92;42.00;99899.25;4994400;28;20077;-71
2023/01/15 10:04:47;;;;;;;5.78;1.48;;;;;;;18.88;42.01;99896.06;4995373;28;20490;-72
2023/01/15 10:07:29;;;;;;;10.40;1.50;;;;;;;18.93;42.38;99899.09;4987934;28;20868;-67
2023/01/15 10:10:10;;;;;;;6.55;1.50;;;;;;;18.93;42.58;99893.81;4993952;28;20443;-68
2023/01/15 10:12:38;;;;;;;4.20;1.23;;;;;;;18.95;42.54;99906.88;5001731;28;20037;-67
2023/01/15 10:15:16;;;;;;;4.57;0.98;;;;;;;18.93;42.58;99912.31;4986711;28;20400;-68
2023/01/15 10:17:44;;;;;;;5.82;1.10;;;;;;;18.94;42.53;99907.84;4983762;28;20112;-69
2023/01/15 10:20:34;;;;;;;6.85;1.10;;;;;;;18.91;42.39;99924.00;4982365;28;20962;-71
2023/01/15 10:23:28;;;;;;;6.30;1.13;;;;;;;18.95;41.84;99909.50;4995905;28;20611;-70
2023/01/15 10:26:02;;;;;;;6.70;1.20;;;;;;;18.93;41.71;99914.09;5000267;28;20390;-71
2023/01/15 10:28:30;;;;;;;6.18;1.00;;;;;;;18.93;41.50;99907.03;5000790;28;20041;-68
2023/01/15 10:30:57;;;;;;;5.28;1.17;;;;;;;18.93;41.41;99922.88;4987584;28;20080;-68
2023/01/15 10:33:57;;;;;;;4.68;1.10;;;;;;;18.91;41.36;99905.50;5000151;28;20455;-70
2023/01/15 10:36:37;;;;;;;4.55;1.10;;;;;;;18.96;41.10;99921.72;4985821;28;20109;-70
2023/01/15 10:39:41;;;;;;;4.72;1.00;;;;;;;18.98;41.09;99925.06;4982188;28;20069;-71
2023/01/15 10:42:45;;;;;;;6.63;1.15;;;;;;;18.98;41.04;99907.38;4997897;28;20103;-72
2023/01/15 10:45:19;;;;;;;5.93;1.40;;;;;;;18.93;40.65;99916.72;4989094;28;20038;-72
2023/01/15 10:47:47;;;;;;;;;;;;;;;19.05;40.54;99910.25;4981897;28;20038;-70
2023/01/15 10:50:23;;;;;;;4.25;1.13;;;;;;;18.99;40.41;99906.41;4993073;28;19913;-71
2023/01/15 10:53:01;;;;;;;7.13;1.55;;;;;;;18.95;40.45;99893.66;4990125;28;20026;-70
2023/01/15 10:55:39;;;;;;;4.88;1.50;;;;;;;19.00;40.35;99918.63;4986890;28;20116;-69
2023/01/15 10:58:15;;;;;;;2.83;0.85;;;;;;;19.00;40.33;99886.13;4990446;28;20041;-71
2023/01/15 11:00:48;;;;;;;4.35;0.95;;;;;;;19.01;40.18;99893.88;5000608;28;20395;-69
2023/01/15 11:03:19;;;;;;;7.03;1.42;;;;;;;18.97;39.92;99895.16;4998102;28;20475;-69
2023/01/15 11:05:45;;;;;;;3.40;1.02;;;;;;;18.96;39.87;99893.53;4994415;28;20036;-69
2023/01/15 11:08:30;;;;;;;4.60;1.00;;;;;;;18.98;39.63;99915.31;4998864;28;20390;-72
2023/01/15 11:11:15;;;;;;;5.03;1.27;;;;;;;19.02;40.00;99899.97;4995276;28;20461;-70
2023/01/15 11:19:41;;;;;;;5.13;1.02;;;;;;;18.99;39.63;99921.41;4993486;28;20122;-72
2023/01/15 11:22:18;;;;;;;4.65;1.20;;;;;;;18.98;39.54;99917.13;4986380;28;20034;-72
2023/01/15 11:24:56;;;;;;;4.80;0.88;;;;;;;19.00;39.44;99921.25;4994090;28;20372;-69
2023/01/15 11:27:32;;;;;;;3.88;0.82;;;;;;;18.98;39.21;99917.13;4984884;28;20472;-72
2023/01/15 11:30:00;;;;;;;3.42;0.95;;;;;;;19.01;39.38;99907.09;4997176;28;20042;-71
2023/01/15 11:32:32;;;;;;;3.70;0.90;;;;;;;19.00;39.38;99909.88;4997753;28;20536;-69
2023/01/15 11:35:00;;;;;;;4.18;0.90;;;;;;;19.01;39.16;99920.28;5001113;28;20041;-70
2023/01/15 11:37:26;;;;;;;4.25;0.95;;;;;;;18.99;39.18;99901.13;4992329;28;20037;-69
2023/01/15 11:40:04;;;;;;;6.03;1.02;;;;;;;18.97;39.40;99918.91;4997120;28;20034;-69
2023/01/15 11:50:48;;;;;;;6.45;2.80;;;;;;;18.91;39.37;99918.72;4989130;28;20082;-70
2023/01/15 11:53:31;;;;;;;7.68;3.38;;;;;;;18.92;39.26;99912.47;4995739;28;20037;-68
2023/01/15 11:56:05;;;;;;;9.63;3.42;;;;;;;18.92;39.50;99923.84;5004083;28;20034;-69
2023/01/15 11:58:45;;;;;;;8.25;3.08;;;;;;;18.95;39.47;99923.53;4988428;28;20042;-69
2023/01/15 12:01:23;;;;;;;8.07;2.70;;;;;;;18.90;39.58;99917.88;4995404;28;20046;-69
2023/01/15 12:03:48;;;;;;;9.50;2.67;;;;;;;18.91;39.30;99914.25;4984745;28;20038;-69
2023/01/15 12:06:14;;;;;;;6.65;2.40;;;;;;;18.91;39.46;99901.03;5001376;28;20553;-69
2023/01/15 12:08:54;;;;;;;7.40;2.40;;;;;;;18.93;39.21;99928.16;4998154;28;20030;-68
2023/01/15 12:11:26;;;;;;;7.25;2.42;;;;;;;18.92;39.51;99923.00;4992836;28;20103;-67
2023/01/15 12:14:28;;;;;;;6.15;2.25;;;;;;;18.95;39.48;99917.44;4999678;28;20041;-68
2023/01/15 12:17:19;;;;;;;5.00;1.83;;;;;;;18.94;39.45;99911.31;4995626;28;20112;-67
2023/01/15 12:19:56;;;;;;;4.82;1.70;;;;;;;18.94;39.29;99915.75;4984117;28;20034;-70
2023/01/15 12:22:55;;;;;;;6.00;2.03;;;;;;;18.93;39.18;99896.47;4987794;28;20036;-70
2023/01/15 12:25:36;;;;;;;5.18;1.45;;;;;;;18.96;39.12;99913.78;4992886;28;20034;-69
2023/01/15 12:28:24;;;;;;;5.32;1.83;;;;;;;18.97;39.07;99903.06;4987754;28;20046;-69